SAS1488 ENGM-ESSA
Flight info
| Callsign | SAS1488 |
|---|---|
| Flight time | 0h 43m |
| Altitude | 31000 |
| Route | MASEV Z183 LEGPO DCT ELTOK |
| Aircraft | A320/M-SDE3FGHIRWXY/ALB1 |
Departure
| Time | 2026-05-07 08:11 |
|---|---|
| Airport | Oslo-Gardermoen International Airport (ENGM) |
Arrival
| Time | 2026-05-07 08:55 |
|---|---|
| Airport | Stockholm-Arlanda Airport (ESSA) |
| Time | Latitude | Longitude | Altitude | Speed | Heading |
|---|---|---|---|---|---|
| 2026-05-07 07:47 | 60.19598 | 11.09200 | 682 ft | 0 kts | 196° |
| 2026-05-07 07:58 | 60.19614 | 11.09210 | 676 ft | 2 kts | 196° |
| 2026-05-07 07:58 | 60.19631 | 11.09219 | 679 ft | 2 kts | 196° |
| 2026-05-07 07:59 | 60.19647 | 11.09229 | 680 ft | 2 kts | 196° |
| 2026-05-07 07:59 | 60.19663 | 11.09238 | 682 ft | 2 kts | 196° |
| 2026-05-07 07:59 | 60.19679 | 11.09248 | 682 ft | 2 kts | 210° |
| 2026-05-07 07:59 | 60.19693 | 11.09268 | 675 ft | 2 kts | 238° |
| 2026-05-07 08:00 | 60.19700 | 11.09299 | 682 ft | 1 kts | 272° |
| 2026-05-07 08:00 | 60.19700 | 11.09300 | 682 ft | 0 kts | 273° |
| 2026-05-07 08:02 | 60.19700 | 11.09298 | 681 ft | 1 kts | 271° |
| 2026-05-07 08:02 | 60.19700 | 11.09294 | 680 ft | 1 kts | 269° |
| 2026-05-07 08:02 | 60.19700 | 11.09283 | 680 ft | 4 kts | 274° |
| 2026-05-07 08:03 | 60.19706 | 11.09215 | 688 ft | 6 kts | 282° |
| 2026-05-07 08:03 | 60.19722 | 11.09095 | 680 ft | 11 kts | 285° |
| 2026-05-07 08:03 | 60.19748 | 11.08930 | 678 ft | 15 kts | 288° |
| 2026-05-07 08:03 | 60.19771 | 11.08780 | 675 ft | 8 kts | 287° |
| 2026-05-07 08:04 | 60.19768 | 11.08685 | 678 ft | 8 kts | 242° |
| 2026-05-07 08:04 | 60.19713 | 11.08633 | 678 ft | 11 kts | 194° |
| 2026-05-07 08:04 | 60.19625 | 11.08584 | 678 ft | 15 kts | 195° |
| 2026-05-07 08:04 | 60.19517 | 11.08525 | 680 ft | 17 kts | 195° |
| 2026-05-07 08:05 | 60.19396 | 11.08455 | 680 ft | 20 kts | 196° |
| 2026-05-07 08:05 | 60.19250 | 11.08371 | 680 ft | 24 kts | 196° |
| 2026-05-07 08:05 | 60.19080 | 11.08275 | 677 ft | 27 kts | 196° |
| 2026-05-07 08:05 | 60.18979 | 11.08217 | 674 ft | 0 kts | 197° |
| 2026-05-07 08:07 | 60.18958 | 11.08204 | 674 ft | 10 kts | 196° |
| 2026-05-07 08:07 | 60.18857 | 11.08146 | 670 ft | 18 kts | 196° |
| 2026-05-07 08:08 | 60.18795 | 11.08107 | 670 ft | 8 kts | 198° |
| 2026-05-07 08:08 | 60.18787 | 11.08102 | 670 ft | 8 kts | 198° |
| 2026-05-07 08:08 | 60.18718 | 11.08059 | 668 ft | 13 kts | 197° |
| 2026-05-07 08:09 | 60.18616 | 11.08001 | 667 ft | 17 kts | 195° |
| 2026-05-07 08:09 | 60.18543 | 11.07938 | 665 ft | 9 kts | 236° |
| 2026-05-07 08:09 | 60.18553 | 11.07778 | 664 ft | 14 kts | 287° |
| 2026-05-07 08:09 | 60.18573 | 11.07639 | 663 ft | 9 kts | 285° |
| 2026-05-07 08:10 | 60.18610 | 11.07504 | 664 ft | 14 kts | 317° |
| 2026-05-07 08:10 | 60.18673 | 11.07476 | 665 ft | 9 kts | 11° |
| 2026-05-07 08:10 | 60.18753 | 11.07521 | 665 ft | 19 kts | 16° |
| 2026-05-07 08:10 | 60.19108 | 11.07726 | 671 ft | 89 kts | 16° |
| 2026-05-07 08:11 | 60.19898 | 11.08181 | 673 ft | 145 kts | 16° |
| 2026-05-07 08:11 | 60.20923 | 11.08764 | 1176 ft | 154 kts | 17° |
| 2026-05-07 08:11 | 60.21969 | 11.09353 | 1939 ft | 158 kts | 15° |
| 2026-05-07 08:11 | 60.23096 | 11.09989 | 2439 ft | 179 kts | 15° |
| 2026-05-07 08:12 | 60.24364 | 11.10718 | 2793 ft | 205 kts | 15° |
| 2026-05-07 08:12 | 60.25838 | 11.11348 | 3346 ft | 227 kts | 0° |
| 2026-05-07 08:12 | 60.27478 | 11.11022 | 4004 ft | 248 kts | 352° |
| 2026-05-07 08:12 | 60.29226 | 11.10664 | 4935 ft | 257 kts | 3° |
| 2026-05-07 08:13 | 60.30915 | 11.11916 | 5847 ft | 266 kts | 38° |
| 2026-05-07 08:13 | 60.31972 | 11.14976 | 6836 ft | 273 kts | 73° |
| 2026-05-07 08:13 | 60.32069 | 11.18813 | 7816 ft | 279 kts | 96° |
| 2026-05-07 08:13 | 60.32047 | 11.22747 | 8800 ft | 284 kts | 79° |
| 2026-05-07 08:14 | 60.32618 | 11.26573 | 9802 ft | 287 kts | 66° |
| 2026-05-07 08:14 | 60.33489 | 11.30268 | 10520 ft | 301 kts | 60° |
| 2026-05-07 08:14 | 60.34542 | 11.34111 | 10895 ft | 325 kts | 58° |
| 2026-05-07 08:14 | 60.35707 | 11.38216 | 11226 ft | 348 kts | 58° |
| 2026-05-07 08:15 | 60.36916 | 11.42573 | 11888 ft | 360 kts | 59° |
| 2026-05-07 08:15 | 60.38119 | 11.47073 | 12707 ft | 368 kts | 59° |
| 2026-05-07 08:15 | 60.39313 | 11.51716 | 13534 ft | 376 kts | 62° |
| 2026-05-07 08:15 | 60.40199 | 11.56776 | 14274 ft | 388 kts | 75° |
| 2026-05-07 08:16 | 60.40537 | 11.62246 | 15008 ft | 397 kts | 88° |
| 2026-05-07 08:16 | 60.40310 | 11.67864 | 15741 ft | 403 kts | 101° |
| 2026-05-07 08:16 | 60.39504 | 11.73326 | 16468 ft | 408 kts | 114° |
| 2026-05-07 08:16 | 60.38215 | 11.78451 | 17215 ft | 412 kts | 121° |
| 2026-05-07 08:17 | 60.36840 | 11.83578 | 17970 ft | 417 kts | 121° |
| 2026-05-07 08:17 | 60.35445 | 11.88763 | 18681 ft | 423 kts | 121° |
| 2026-05-07 08:17 | 60.34033 | 11.94003 | 19383 ft | 428 kts | 121° |
| 2026-05-07 08:17 | 60.32599 | 11.99322 | 20072 ft | 434 kts | 121° |
| 2026-05-07 08:18 | 60.31144 | 12.04703 | 20773 ft | 440 kts | 122° |
| 2026-05-07 08:18 | 60.29664 | 12.10145 | 21453 ft | 445 kts | 122° |
| 2026-05-07 08:18 | 60.28163 | 12.15643 | 22105 ft | 451 kts | 122° |
| 2026-05-07 08:18 | 60.26641 | 12.21222 | 22756 ft | 456 kts | 122° |
| 2026-05-07 08:19 | 60.25104 | 12.26852 | 23387 ft | 462 kts | 122° |
| 2026-05-07 08:19 | 60.23548 | 12.32541 | 23964 ft | 467 kts | 122° |
| 2026-05-07 08:19 | 60.21990 | 12.38220 | 24492 ft | 472 kts | 122° |
| 2026-05-07 08:19 | 60.20395 | 12.44011 | 25040 ft | 476 kts | 122° |
| 2026-05-07 08:20 | 60.18896 | 12.49994 | 25574 ft | 483 kts | 115° |
| 2026-05-07 08:20 | 60.17804 | 12.56401 | 26097 ft | 489 kts | 106° |
| 2026-05-07 08:20 | 60.17175 | 12.63151 | 26613 ft | 494 kts | 97° |
| 2026-05-07 08:20 | 60.16761 | 12.70035 | 27109 ft | 498 kts | 97° |
| 2026-05-07 08:21 | 60.16329 | 12.76962 | 27595 ft | 502 kts | 98° |
| 2026-05-07 08:21 | 60.15881 | 12.83931 | 28054 ft | 505 kts | 98° |
| 2026-05-07 08:21 | 60.15422 | 12.90940 | 28501 ft | 508 kts | 98° |
| 2026-05-07 08:21 | 60.14958 | 12.97991 | 28923 ft | 512 kts | 98° |
| 2026-05-07 08:22 | 60.14490 | 13.05100 | 29325 ft | 515 kts | 98° |
| 2026-05-07 08:22 | 60.14019 | 13.12224 | 29795 ft | 515 kts | 98° |
| 2026-05-07 08:22 | 60.13547 | 13.19361 | 30319 ft | 514 kts | 98° |
| 2026-05-07 08:22 | 60.13075 | 13.26460 | 30776 ft | 514 kts | 98° |
| 2026-05-07 08:23 | 60.12597 | 13.33554 | 31004 ft | 514 kts | 98° |
| 2026-05-07 08:23 | 60.11622 | 13.47696 | 31055 ft | 510 kts | 99° |
| 2026-05-07 08:24 | 60.10638 | 13.61784 | 31056 ft | 509 kts | 99° |
| 2026-05-07 08:24 | 60.09647 | 13.75828 | 31058 ft | 509 kts | 99° |
| 2026-05-07 08:25 | 60.08646 | 13.89857 | 31054 ft | 508 kts | 99° |
| 2026-05-07 08:25 | 60.07622 | 14.03866 | 31052 ft | 508 kts | 100° |
| 2026-05-07 08:26 | 60.06055 | 14.24858 | 31050 ft | 508 kts | 100° |
| 2026-05-07 08:26 | 60.04999 | 14.38828 | 31049 ft | 508 kts | 100° |
| 2026-05-07 08:27 | 60.03932 | 14.52800 | 31047 ft | 507 kts | 101° |
| 2026-05-07 08:27 | 60.02845 | 14.66735 | 31049 ft | 507 kts | 101° |
| 2026-05-07 08:28 | 60.01745 | 14.80656 | 31049 ft | 507 kts | 101° |
| 2026-05-07 08:28 | 60.00631 | 14.94560 | 31042 ft | 506 kts | 101° |
| 2026-05-07 08:29 | 59.99501 | 15.08439 | 31050 ft | 506 kts | 102° |
| 2026-05-07 08:29 | 59.98359 | 15.22306 | 31043 ft | 506 kts | 102° |
| 2026-05-07 08:30 | 59.97206 | 15.36153 | 31047 ft | 505 kts | 102° |
| 2026-05-07 08:30 | 59.96034 | 15.49991 | 31056 ft | 505 kts | 102° |
| 2026-05-07 08:31 | 59.95449 | 15.56849 | 30856 ft | 496 kts | 102° |
| 2026-05-07 08:31 | 59.94885 | 15.63445 | 30729 ft | 481 kts | 102° |
| 2026-05-07 08:31 | 59.94326 | 15.69928 | 30601 ft | 468 kts | 103° |
| 2026-05-07 08:31 | 59.93776 | 15.76233 | 30464 ft | 456 kts | 103° |
| 2026-05-07 08:32 | 59.93230 | 15.82424 | 30146 ft | 450 kts | 103° |
| 2026-05-07 08:32 | 59.92687 | 15.88535 | 29707 ft | 445 kts | 103° |
| 2026-05-07 08:32 | 59.92152 | 15.94561 | 28914 ft | 439 kts | 103° |
| 2026-05-07 08:32 | 59.91624 | 16.00516 | 28117 ft | 434 kts | 103° |
| 2026-05-07 08:33 | 59.91102 | 16.06402 | 27386 ft | 428 kts | 103° |
| 2026-05-07 08:33 | 59.90584 | 16.12214 | 26673 ft | 423 kts | 103° |
| 2026-05-07 08:33 | 59.90068 | 16.17947 | 25964 ft | 418 kts | 103° |
| 2026-05-07 08:33 | 59.89553 | 16.23605 | 25260 ft | 413 kts | 103° |
| 2026-05-07 08:34 | 59.89046 | 16.29121 | 24575 ft | 407 kts | 103° |
| 2026-05-07 08:34 | 59.88538 | 16.34631 | 23887 ft | 403 kts | 103° |
| 2026-05-07 08:34 | 59.88034 | 16.40095 | 23109 ft | 398 kts | 103° |
| 2026-05-07 08:34 | 59.87538 | 16.45457 | 22434 ft | 390 kts | 103° |
| 2026-05-07 08:35 | 59.87049 | 16.50711 | 21753 ft | 383 kts | 103° |
| 2026-05-07 08:35 | 59.86728 | 16.54152 | 21292 ft | 379 kts | 103° |
| 2026-05-07 08:35 | 59.86087 | 16.61000 | 20375 ft | 373 kts | 103° |
| 2026-05-07 08:35 | 59.85613 | 16.66033 | 19699 ft | 368 kts | 103° |
| 2026-05-07 08:36 | 59.85301 | 16.69333 | 19262 ft | 365 kts | 103° |
| 2026-05-07 08:36 | 59.84831 | 16.74269 | 18621 ft | 361 kts | 103° |
| 2026-05-07 08:36 | 59.84365 | 16.79144 | 17936 ft | 357 kts | 103° |
| 2026-05-07 08:36 | 59.83903 | 16.83955 | 17229 ft | 352 kts | 103° |
| 2026-05-07 08:37 | 59.83443 | 16.88721 | 16549 ft | 348 kts | 103° |
| 2026-05-07 08:37 | 59.82987 | 16.93415 | 15884 ft | 344 kts | 103° |
| 2026-05-07 08:37 | 59.82602 | 16.98077 | 15262 ft | 340 kts | 96° |
| 2026-05-07 08:37 | 59.82260 | 17.02580 | 14922 ft | 324 kts | 114° |
| 2026-05-07 08:38 | 59.81046 | 17.06192 | 14527 ft | 312 kts | 142° |
| 2026-05-07 08:38 | 59.79260 | 17.08575 | 14000 ft | 308 kts | 161° |
| 2026-05-07 08:38 | 59.77249 | 17.09878 | 13579 ft | 301 kts | 176° |
| 2026-05-07 08:38 | 59.75197 | 17.10094 | 13192 ft | 291 kts | 191° |
| 2026-05-07 08:39 | 59.73270 | 17.09182 | 12802 ft | 282 kts | 208° |
| 2026-05-07 08:39 | 59.71612 | 17.07235 | 12426 ft | 274 kts | 224° |
| 2026-05-07 08:39 | 59.70340 | 17.04483 | 12038 ft | 269 kts | 239° |
| 2026-05-07 08:39 | 59.69523 | 17.01181 | 11658 ft | 267 kts | 254° |
| 2026-05-07 08:40 | 59.69205 | 16.97633 | 11497 ft | 258 kts | 268° |
| 2026-05-07 08:40 | 59.69269 | 16.94151 | 11367 ft | 250 kts | 274° |
| 2026-05-07 08:40 | 59.69629 | 16.90853 | 11233 ft | 243 kts | 290° |
| 2026-05-07 08:40 | 59.70418 | 16.87943 | 11102 ft | 238 kts | 303° |
| 2026-05-07 08:41 | 59.71502 | 16.85539 | 10911 ft | 237 kts | 315° |
| 2026-05-07 08:41 | 59.72862 | 16.83669 | 10645 ft | 240 kts | 329° |
| 2026-05-07 08:41 | 59.74431 | 16.82494 | 10378 ft | 244 kts | 343° |
| 2026-05-07 08:41 | 59.76127 | 16.82137 | 10102 ft | 247 kts | 359° |
| 2026-05-07 08:42 | 59.77832 | 16.82667 | 9821 ft | 250 kts | 14° |
| 2026-05-07 08:42 | 59.79429 | 16.84058 | 9506 ft | 252 kts | 30° |
| 2026-05-07 08:42 | 59.80779 | 16.86359 | 8897 ft | 265 kts | 52° |
| 2026-05-07 08:42 | 59.81506 | 16.89720 | 8614 ft | 265 kts | 81° |
| 2026-05-07 08:43 | 59.81608 | 16.93354 | 8360 ft | 263 kts | 89° |
| 2026-05-07 08:43 | 59.81638 | 16.96983 | 8070 ft | 263 kts | 90° |
| 2026-05-07 08:43 | 59.81657 | 17.00622 | 7759 ft | 263 kts | 90° |
| 2026-05-07 08:43 | 59.81675 | 17.04250 | 7485 ft | 262 kts | 90° |
| 2026-05-07 08:44 | 59.81693 | 17.07866 | 7232 ft | 261 kts | 90° |
| 2026-05-07 08:44 | 59.81708 | 17.11457 | 6986 ft | 259 kts | 90° |
| 2026-05-07 08:44 | 59.81723 | 17.15024 | 6741 ft | 257 kts | 90° |
| 2026-05-07 08:44 | 59.81736 | 17.18571 | 6483 ft | 256 kts | 90° |
| 2026-05-07 08:45 | 59.81751 | 17.22097 | 6234 ft | 255 kts | 90° |
| 2026-05-07 08:45 | 59.81767 | 17.25611 | 5976 ft | 253 kts | 90° |
| 2026-05-07 08:45 | 59.81782 | 17.29103 | 5687 ft | 252 kts | 90° |
| 2026-05-07 08:45 | 59.81796 | 17.32577 | 5447 ft | 251 kts | 90° |
| 2026-05-07 08:46 | 59.81806 | 17.36036 | 5241 ft | 250 kts | 90° |
| 2026-05-07 08:46 | 59.81818 | 17.39475 | 5035 ft | 248 kts | 91° |
| 2026-05-07 08:46 | 59.81830 | 17.42891 | 4759 ft | 247 kts | 91° |
| 2026-05-07 08:46 | 59.81843 | 17.46292 | 4448 ft | 245 kts | 90° |
| 2026-05-07 08:47 | 59.81855 | 17.49678 | 4188 ft | 245 kts | 91° |
| 2026-05-07 08:47 | 59.81865 | 17.53055 | 3913 ft | 243 kts | 91° |
| 2026-05-07 08:47 | 59.81872 | 17.56412 | 3589 ft | 243 kts | 91° |
| 2026-05-07 08:47 | 59.81876 | 17.59760 | 3313 ft | 241 kts | 91° |
| 2026-05-07 08:48 | 59.81879 | 17.63083 | 3053 ft | 241 kts | 91° |
| 2026-05-07 08:48 | 59.81882 | 17.66401 | 2838 ft | 239 kts | 91° |
| 2026-05-07 08:48 | 59.81884 | 17.69700 | 2595 ft | 238 kts | 91° |
| 2026-05-07 08:48 | 59.81888 | 17.72969 | 2499 ft | 235 kts | 91° |
| 2026-05-07 08:49 | 59.81893 | 17.76225 | 2507 ft | 237 kts | 91° |
| 2026-05-07 08:49 | 59.81893 | 17.79485 | 2503 ft | 232 kts | 91° |
| 2026-05-07 08:49 | 59.81891 | 17.82548 | 2505 ft | 217 kts | 91° |
| 2026-05-07 08:49 | 59.81891 | 17.85473 | 2496 ft | 201 kts | 91° |
| 2026-05-07 08:50 | 59.81891 | 17.88126 | 2539 ft | 188 kts | 92° |
| 2026-05-07 08:50 | 59.81827 | 17.90627 | 2509 ft | 174 kts | 102° |
| 2026-05-07 08:50 | 59.81427 | 17.92815 | 2494 ft | 162 kts | 121° |
| 2026-05-07 08:50 | 59.80769 | 17.94502 | 2493 ft | 147 kts | 139° |
| 2026-05-07 08:51 | 59.79966 | 17.95655 | 2497 ft | 140 kts | 154° |
| 2026-05-07 08:51 | 59.79055 | 17.96328 | 2512 ft | 138 kts | 169° |
| 2026-05-07 08:51 | 59.78104 | 17.96494 | 2407 ft | 136 kts | 184° |
| 2026-05-07 08:51 | 59.77171 | 17.96205 | 2277 ft | 136 kts | 191° |
| 2026-05-07 08:52 | 59.76256 | 17.95872 | 2124 ft | 133 kts | 191° |
| 2026-05-07 08:52 | 59.75354 | 17.95548 | 1957 ft | 131 kts | 189° |
| 2026-05-07 08:52 | 59.74458 | 17.95220 | 1768 ft | 130 kts | 190° |
| 2026-05-07 08:52 | 59.73569 | 17.94896 | 1589 ft | 130 kts | 190° |
| 2026-05-07 08:53 | 59.72694 | 17.94576 | 1418 ft | 130 kts | 190° |
| 2026-05-07 08:53 | 59.71797 | 17.94250 | 1219 ft | 129 kts | 189° |
| 2026-05-07 08:53 | 59.70917 | 17.93931 | 1029 ft | 128 kts | 190° |
| 2026-05-07 08:53 | 59.70036 | 17.93611 | 844 ft | 129 kts | 189° |
| 2026-05-07 08:54 | 59.69155 | 17.93294 | 677 ft | 129 kts | 189° |
| 2026-05-07 08:54 | 59.68277 | 17.92976 | 493 ft | 127 kts | 190° |
| 2026-05-07 08:54 | 59.67404 | 17.92657 | 336 ft | 128 kts | 190° |
| 2026-05-07 08:54 | 59.66531 | 17.92339 | 165 ft | 127 kts | 190° |
| 2026-05-07 08:55 | 59.65727 | 17.92048 | 121 ft | 98 kts | 190° |
| 2026-05-07 08:55 | 59.65223 | 17.91865 | 117 ft | 49 kts | 191° |
| 2026-05-07 08:55 | 59.64941 | 17.91763 | 116 ft | 34 kts | 190° |
| 2026-05-07 08:55 | 59.64765 | 17.91704 | 116 ft | 20 kts | 185° |
| 2026-05-07 08:56 | 59.64626 | 17.91735 | 115 ft | 17 kts | 167° |
| 2026-05-07 08:56 | 59.64532 | 17.91791 | 114 ft | 0 kts | 163° |
| 2026-05-07 08:57 | 59.64500 | 17.91824 | 114 ft | 11 kts | 138° |
| 2026-05-07 08:58 | 59.64506 | 17.91955 | 113 ft | 12 kts | 39° |
| 2026-05-07 08:58 | 59.64595 | 17.91997 | 114 ft | 16 kts | 9° |
| 2026-05-07 08:58 | 59.64681 | 17.92029 | 115 ft | 13 kts | 12° |
| 2026-05-07 08:58 | 59.64780 | 17.92069 | 115 ft | 16 kts | 9° |
| 2026-05-07 08:59 | 59.64903 | 17.92110 | 116 ft | 20 kts | 9° |
| 2026-05-07 08:59 | 59.65048 | 17.92162 | 117 ft | 23 kts | 11° |
| 2026-05-07 08:59 | 59.65195 | 17.92215 | 118 ft | 18 kts | 9° |
| 2026-05-07 08:59 | 59.65323 | 17.92262 | 116 ft | 15 kts | 12° |
| 2026-05-07 09:00 | 59.65420 | 17.92334 | 115 ft | 16 kts | 41° |
| 2026-05-07 09:00 | 59.65505 | 17.92507 | 119 ft | 19 kts | 59° |
| 2026-05-07 09:00 | 59.65544 | 17.92746 | 117 ft | 16 kts | 78° |
| 2026-05-07 09:00 | 59.65570 | 17.92935 | 117 ft | 13 kts | 71° |
| 2026-05-07 09:01 | 59.65598 | 17.93141 | 118 ft | 18 kts | 76° |
| 2026-05-07 09:01 | 59.65631 | 17.93407 | 117 ft | 22 kts | 77° |
| 2026-05-07 09:01 | 59.65667 | 17.93682 | 116 ft | 13 kts | 73° |
| 2026-05-07 09:01 | 59.65645 | 17.93825 | 115 ft | 12 kts | 150° |
| 2026-05-07 09:02 | 59.65553 | 17.93870 | 115 ft | 15 kts | 165° |
| 2026-05-07 09:02 | 59.65476 | 17.93912 | 115 ft | 7 kts | 166° |
| 2026-05-07 09:02 | 59.65431 | 17.93933 | 114 ft | 4 kts | 167° |
| 2026-05-07 09:02 | 59.65389 | 17.93953 | 114 ft | 8 kts | 167° |
| 2026-05-07 09:03 | 59.65356 | 17.93884 | 115 ft | 9 kts | 252° |
| 2026-05-07 09:03 | 59.65349 | 17.93824 | 116 ft | 0 kts | 257° |